createdAt,value
2022-10-05T00:02:19.368Z,2.75
2022-10-05T00:07:24.668Z,2.97
2022-10-05T00:12:30.686Z,2.70
2022-10-05T00:17:35.839Z,2.58
2022-10-05T00:22:39.194Z,2.60
2022-10-05T00:27:42.574Z,2.67
2022-10-05T00:32:48.019Z,2.70
2022-10-05T00:37:55.793Z,2.65
2022-10-05T00:43:16.626Z,2.67
2022-10-05T00:48:30.700Z,3.03
2022-10-05T00:53:43.599Z,2.75
2022-10-05T00:58:57.209Z,2.63
2022-10-05T01:04:13.935Z,2.08
2022-10-05T01:09:26.711Z,2.28
2022-10-05T01:14:40.570Z,2.50
2022-10-05T01:20:13.033Z,2.63
2022-10-05T01:25:26.032Z,2.22
2022-10-05T01:30:36.194Z,2.40
2022-10-05T01:35:47.679Z,2.45
2022-10-05T01:41:00.264Z,2.70
2022-10-05T01:46:15.642Z,2.78
2022-10-05T01:51:28.941Z,2.30
2022-10-05T01:56:40.638Z,2.33
2022-10-05T02:01:51.100Z,1.95
2022-10-05T02:06:55.159Z,2.28
2022-10-05T02:12:05.976Z,2.10
2022-10-05T02:17:16.326Z,2.80
2022-10-05T02:22:24.429Z,2.17
2022-10-05T02:27:31.208Z,2.47
2022-10-05T02:32:39.806Z,2.00
2022-10-05T02:37:54.589Z,2.30
2022-10-05T02:43:06.509Z,2.67
2022-10-05T02:48:16.574Z,2.43
2022-10-05T02:53:26.725Z,2.30
2022-10-05T02:58:37.241Z,2.95
2022-10-05T03:03:48.417Z,3.20
2022-10-05T03:09:01.127Z,3.38
2022-10-05T03:14:11.464Z,3.00
2022-10-05T03:19:32.602Z,3.10
2022-10-05T03:24:47.678Z,3.13
2022-10-05T03:29:58.814Z,3.08
2022-10-05T03:35:07.858Z,2.95
2022-10-05T03:40:26.770Z,2.38
2022-10-05T03:45:37.594Z,2.47
2022-10-05T03:50:47.156Z,3.07
2022-10-05T03:55:55.320Z,2.87
2022-10-05T04:01:03.484Z,3.38
2022-10-05T04:06:13.678Z,3.57
2022-10-05T04:11:22.510Z,2.50
2022-10-05T04:16:29.007Z,2.60
2022-10-05T04:21:39.331Z,2.10
2022-10-05T04:26:49.894Z,2.05
2022-10-05T04:32:14.295Z,2.80
2022-10-05T04:37:23.226Z,2.40
2022-10-05T04:42:33.371Z,2.10
2022-10-05T04:47:59.968Z,2.28
2022-10-05T04:53:14.061Z,2.20
2022-10-05T04:58:28.830Z,2.33
2022-10-05T05:04:05.627Z,1.83
2022-10-05T05:09:29.222Z,1.90
2022-10-05T05:15:19.265Z,1.93
2022-10-05T05:20:27.063Z,1.93
2022-10-05T05:25:40.334Z,2.30
2022-10-05T05:30:49.148Z,2.10
2022-10-05T05:36:28.377Z,2.50
2022-10-05T05:41:38.834Z,2.87
2022-10-05T05:47:02.848Z,2.37
2022-10-05T05:52:15.747Z,2.83
2022-10-05T05:57:25.278Z,2.50
2022-10-05T06:02:33.143Z,2.47
2022-10-05T06:07:39.268Z,3.00
2022-10-05T06:12:48.036Z,2.57
2022-10-05T06:17:55.310Z,2.90
2022-10-05T06:23:04.597Z,3.25
2022-10-05T06:28:12.948Z,4.15
2022-10-05T06:33:25.613Z,3.90
2022-10-05T06:38:56.594Z,3.85
2022-10-05T06:44:06.289Z,3.38
2022-10-05T06:49:30.674Z,3.00
2022-10-05T06:54:43.886Z,2.45
2022-10-05T06:59:55.286Z,2.78
2022-10-05T07:05:34.577Z,3.00
2022-10-05T07:10:48.174Z,3.08
2022-10-05T07:16:02.839Z,3.28
2022-10-05T07:21:16.691Z,2.72
2022-10-05T07:26:26.315Z,2.28
2022-10-05T07:31:36.894Z,2.25
2022-10-05T07:37:03.022Z,1.70
2022-10-05T07:42:19.407Z,2.38
2022-10-05T07:47:32.000Z,1.98
2022-10-05T07:52:39.922Z,1.85
2022-10-05T07:57:51.032Z,2.00
2022-10-05T08:03:00.416Z,1.70
2022-10-05T08:08:15.533Z,1.70
2022-10-05T08:13:25.761Z,1.27
2022-10-05T08:18:52.391Z,1.50
2022-10-05T08:23:58.954Z,1.38
2022-10-05T08:29:14.872Z,1.95
2022-10-05T08:34:31.349Z,1.70
2022-10-05T08:39:40.660Z,1.52
2022-10-05T08:45:44.559Z,2.03
2022-10-05T08:51:08.421Z,2.50
2022-10-05T08:56:35.429Z,2.60
2022-10-05T09:01:58.463Z,2.20
2022-10-05T09:07:20.330Z,2.28
2022-10-05T09:12:44.385Z,2.50
2022-10-05T09:18:39.644Z,2.45
2022-10-05T09:23:46.467Z,3.03
2022-10-05T09:29:05.097Z,2.20
2022-10-05T09:34:40.507Z,2.15
2022-10-05T09:40:17.238Z,2.40
2022-10-05T09:45:54.977Z,2.28
2022-10-05T09:51:30.641Z,2.63
2022-10-05T09:56:55.557Z,2.15
2022-10-05T10:02:21.337Z,2.13
2022-10-05T10:07:56.439Z,1.52
2022-10-05T10:13:25.704Z,1.40
2022-10-05T10:18:46.850Z,1.70
2022-10-05T10:24:14.899Z,1.67
2022-10-05T10:29:50.666Z,1.50
2022-10-05T10:35:20.150Z,1.42
2022-10-05T10:40:38.093Z,1.60
2022-10-05T10:45:51.847Z,1.20
2022-10-05T10:51:26.906Z,1.30
2022-10-05T10:57:08.821Z,1.50
2022-10-05T11:02:38.120Z,1.70
2022-10-05T11:08:24.259Z,1.67
2022-10-05T11:13:55.975Z,1.50
2022-10-05T11:25:22.763Z,1.45
2022-10-05T11:30:48.842Z,1.60
2022-10-05T11:36:26.058Z,1.60
2022-10-05T11:41:52.619Z,1.38
2022-10-05T11:47:01.939Z,0.90
2022-10-05T11:52:14.203Z,1.15
2022-10-05T11:57:25.638Z,1.30
2022-10-05T12:02:47.779Z,0.98
2022-10-05T12:08:04.205Z,0.95
2022-10-05T12:13:28.667Z,0.80
2022-10-05T12:18:53.521Z,1.20
2022-10-05T12:24:00.532Z,0.98
2022-10-05T12:29:13.603Z,0.85
2022-10-05T12:34:27.390Z,0.90
2022-10-05T12:39:40.430Z,0.63
2022-10-05T12:45:07.178Z,0.93
2022-10-05T12:50:22.234Z,0.80
2022-10-05T12:55:31.035Z,0.82
2022-10-05T13:00:40.833Z,0.82
2022-10-05T13:05:52.601Z,0.40
2022-10-05T13:11:02.752Z,1.02
2022-10-05T13:16:24.023Z,0.60
2022-10-05T13:21:35.001Z,1.77
2022-10-05T13:26:43.528Z,0.52
2022-10-05T13:31:54.541Z,0.47
2022-10-05T13:37:10.816Z,0.40
2022-10-05T13:42:19.460Z,0.40
2022-10-05T13:47:32.803Z,0.50
2022-10-05T13:52:47.428Z,0.38
2022-10-05T13:58:00.154Z,0.30
2022-10-05T14:03:05.192Z,0.50
2022-10-05T14:08:18.443Z,0.30
2022-10-05T14:13:26.787Z,0.40
2022-10-05T14:18:32.877Z,0.50
2022-10-05T14:23:36.878Z,0.50
2022-10-05T14:28:43.922Z,0.40
2022-10-05T14:33:48.729Z,0.40
2022-10-05T14:38:56.321Z,0.30
2022-10-05T14:44:05.349Z,0.50
2022-10-05T14:49:22.306Z,0.30
2022-10-05T14:54:36.418Z,0.30
2022-10-05T15:00:04.677Z,0.35
2022-10-05T15:10:52.833Z,0.50
2022-10-05T15:16:01.150Z,0.30
2022-10-05T15:21:26.588Z,0.40
2022-10-05T15:26:48.760Z,0.40
2022-10-05T15:31:59.286Z,0.38
2022-10-05T15:37:15.211Z,0.40
2022-10-05T15:42:22.729Z,0.30
2022-10-05T15:47:35.304Z,0.30
2022-10-05T15:52:47.385Z,0.70
2022-10-05T15:57:59.704Z,0.47
2022-10-05T16:03:13.158Z,0.68
2022-10-05T16:08:51.706Z,0.38
2022-10-05T16:14:05.371Z,0.40
2022-10-05T16:19:16.634Z,0.57
2022-10-05T16:24:40.904Z,0.75
2022-10-05T16:29:53.374Z,0.30
2022-10-05T16:35:07.958Z,0.70
2022-10-05T16:40:21.573Z,0.70
2022-10-05T16:45:45.612Z,0.60
2022-10-05T16:51:08.710Z,0.60
2022-10-05T16:56:18.380Z,0.40
2022-10-05T17:01:37.316Z,0.45
2022-10-05T17:07:00.469Z,0.52
2022-10-05T17:12:20.724Z,0.60
2022-10-05T17:17:38.892Z,0.52
2022-10-05T17:22:52.374Z,0.63
2022-10-05T17:27:58.531Z,0.40
2022-10-05T17:33:14.757Z,0.45
2022-10-05T17:38:25.621Z,0.75
2022-10-05T17:43:31.928Z,0.40
2022-10-05T17:49:02.500Z,0.60
2022-10-05T17:54:38.582Z,0.80
2022-10-05T17:59:48.506Z,0.50
2022-10-05T18:05:02.018Z,0.63
2022-10-05T18:10:27.823Z,0.80
2022-10-05T18:15:48.691Z,1.10
2022-10-05T18:21:32.300Z,0.98
2022-10-05T18:26:44.974Z,1.05
2022-10-05T18:32:01.236Z,0.77
2022-10-05T18:37:29.716Z,1.15
2022-10-05T18:42:40.486Z,0.98
2022-10-05T18:47:55.905Z,1.23
2022-10-05T18:53:15.891Z,1.08
2022-10-05T18:58:26.017Z,1.30
2022-10-05T19:03:40.644Z,1.45
2022-10-05T19:08:54.018Z,1.23
2022-10-05T19:14:06.681Z,1.10
2022-10-05T19:19:45.080Z,1.10
2022-10-05T19:24:59.833Z,1.30
2022-10-05T19:30:19.112Z,1.20
2022-10-05T19:35:33.405Z,0.98
2022-10-05T19:40:44.771Z,1.55
2022-10-05T19:46:01.662Z,1.35
2022-10-05T19:51:16.075Z,1.17
2022-10-05T19:56:22.590Z,1.48
2022-10-05T20:01:30.900Z,1.50
2022-10-05T20:06:36.101Z,1.52
2022-10-05T20:11:50.782Z,1.13
2022-10-05T20:17:43.632Z,1.10
2022-10-05T20:22:48.329Z,1.17
2022-10-05T20:27:53.253Z,0.95
2022-10-05T20:32:59.594Z,1.38
2022-10-05T20:38:04.423Z,1.58
2022-10-05T20:43:08.264Z,1.17
2022-10-05T20:48:11.945Z,1.98
2022-10-05T20:53:16.618Z,2.83
2022-10-05T20:58:19.864Z,1.60
2022-10-05T21:03:23.588Z,1.67
2022-10-05T21:08:28.879Z,1.90
2022-10-05T21:13:32.304Z,1.40
2022-10-05T21:18:35.705Z,1.52
2022-10-05T21:23:40.415Z,1.63
2022-10-05T21:28:43.786Z,1.60
2022-10-05T21:33:47.143Z,1.42
2022-10-05T21:38:52.885Z,1.33
2022-10-05T21:43:56.243Z,1.30
2022-10-05T21:48:59.581Z,1.02
2022-10-05T21:54:09.032Z,1.00
2022-10-05T21:59:14.515Z,1.10
2022-10-05T22:04:18.477Z,1.92
2022-10-05T22:09:23.149Z,1.10
2022-10-05T22:14:50.368Z,1.17
2022-10-05T22:19:54.796Z,1.27
2022-10-05T22:24:59.491Z,1.38
2022-10-05T22:30:03.819Z,1.67
2022-10-05T22:35:11.500Z,1.20
2022-10-05T22:40:16.550Z,1.10
2022-10-05T22:45:19.955Z,1.17
2022-10-05T22:50:23.391Z,1.30
2022-10-05T22:55:28.040Z,1.25
2022-10-05T23:00:53.366Z,1.25
2022-10-05T23:05:58.121Z,1.33
2022-10-05T23:11:06.387Z,1.40
2022-10-05T23:16:11.279Z,1.20
2022-10-05T23:21:14.631Z,1.00
2022-10-05T23:26:21.565Z,1.00
2022-10-05T23:31:27.084Z,1.00
2022-10-05T23:36:32.419Z,1.20
2022-10-05T23:41:37.124Z,1.00
2022-10-05T23:46:40.367Z,1.15
2022-10-05T23:51:44.957Z,1.30
2022-10-05T23:56:49.631Z,1.00
